Time;durP1;ratioP1;P1;durP2;ratioP2;P2;SDS_P1;SDS_P2;PMS_P1;PMS_P2;Temp;Humidity;BMP_temperature;BMP_pressure;BME280_temperature;BME280_humidity;BME280_pressure;Samples;Min_cycle;Max_cycle;Signal;HPM_P1;HPM_P2
2023/04/08 00:01:09;;;;;;;1.55;1.45;;;14.90;56.80;;;;;;5072234;28;20174;-68
2023/04/08 00:03:35;;;;;;;2.17;1.42;;;14.90;56.80;;;;;;5072784;28;20167;-68
2023/04/08 00:06:02;;;;;;;1.67;1.58;;;14.90;56.90;;;;;;5072067;28;20230;-68
2023/04/08 00:08:27;;;;;;;1.60;1.50;;;14.80;56.80;;;;;;5072182;28;20710;-67
2023/04/08 00:10:53;;;;;;;1.73;1.60;;;14.80;56.70;;;;;;5072492;28;20193;-67
2023/04/08 00:13:18;;;;;;;1.92;1.70;;;14.90;56.70;;;;;;5071454;28;20250;-67
2023/04/08 00:15:44;;;;;;;1.70;1.60;;;14.90;56.80;;;;;;5072156;28;20178;-67
2023/04/08 00:18:10;;;;;;;1.60;1.50;;;14.90;56.80;;;;;;5072134;28;20641;-66
2023/04/08 00:20:35;;;;;;;1.80;1.70;;;14.90;56.80;;;;;;5071596;28;20511;-65
2023/04/08 00:23:01;;;;;;;1.70;1.60;;;14.80;56.80;;;;;;5072555;28;20251;-66
2023/04/08 00:25:26;;;;;;;1.63;1.52;;;14.80;56.70;;;;;;5072284;28;20174;-67
2023/04/08 00:27:52;;;;;;;1.50;1.40;;;14.80;56.80;;;;;;5071778;28;20166;-67
2023/04/08 00:30:18;;;;;;;1.70;1.60;;;14.80;56.80;;;;;;5071956;28;20198;-68
2023/04/08 00:32:44;;;;;;;1.38;1.27;;;14.80;56.80;;;;;;5072416;28;20182;-68
2023/04/08 00:35:11;;;;;;;1.40;1.33;;;14.80;56.70;;;;;;5071294;28;20292;-67
2023/04/08 00:37:37;;;;;;;1.70;1.60;;;14.80;56.70;;;;;;5072462;28;20170;-66
2023/04/08 00:40:03;;;;;;;1.70;1.60;;;14.80;56.70;;;;;;5072193;28;20297;-67
2023/04/08 00:42:29;;;;;;;1.45;1.35;;;14.80;56.80;;;;;;5071233;28;20630;-66
2023/04/08 00:44:55;;;;;;;1.30;1.20;;;14.80;56.80;;;;;;5072444;28;20537;-68
2023/04/08 00:47:21;;;;;;;1.50;1.40;;;14.80;56.70;;;;;;5071859;28;20253;-68
2023/04/08 00:49:46;;;;;;;1.23;1.13;;;14.80;56.70;;;;;;5071467;28;20213;-67
2023/04/08 00:52:12;;;;;;;1.27;1.17;;;14.80;56.70;;;;;;5071706;28;20507;-67
2023/04/08 00:54:38;;;;;;;1.20;1.13;;;14.80;56.70;;;;;;5071369;28;20178;-67
2023/04/08 00:57:04;;;;;;;1.30;1.20;;;14.80;56.70;;;;;;5071909;28;20167;-68
2023/04/08 00:59:30;;;;;;;1.23;1.20;;;14.80;56.70;;;;;;5070985;28;20280;-68
2023/04/08 01:02:15;;;;;;;1.27;1.20;;;14.70;56.70;;;;;;5070081;28;20175;-69
2023/04/08 01:04:59;;;;;;;1.20;1.15;;;14.80;56.70;;;;;;5072051;28;20174;-68
2023/04/08 01:07:33;;;;;;;1.27;1.17;;;14.70;56.70;;;;;;5070607;28;20232;-66
2023/04/08 01:10:13;;;;;;;0.98;0.98;;;14.70;56.70;;;;;;5070138;28;20178;-66
2023/04/08 01:12:55;;;;;;;1.02;1.02;;;14.70;56.70;;;;;;5070806;28;20228;-67
2023/04/08 01:15:20;;;;;;;1.10;1.10;;;14.70;56.70;;;;;;5070547;28;20190;-67
2023/04/08 01:17:46;;;;;;;0.85;0.85;;;14.70;56.70;;;;;;5069958;28;20171;-66
2023/04/08 01:20:12;;;;;;;0.90;0.90;;;14.70;56.70;;;;;;5070078;28;20765;-66
2023/04/08 01:23:00;;;;;;;1.00;1.00;;;14.70;56.70;;;;;;5072067;28;20175;-66
2023/04/08 01:25:36;;;;;;;1.27;1.13;;;14.70;56.60;;;;;;5070513;28;20217;-67
2023/04/08 01:28:09;;;;;;;1.08;1.08;;;14.70;56.60;;;;;;5074869;28;20630;-67
2023/04/08 01:30:35;;;;;;;1.10;1.10;;;14.70;56.70;;;;;;5074641;28;20245;-69
2023/04/08 01:33:01;;;;;;;1.10;1.10;;;14.70;56.70;;;;;;5074149;28;20228;-68
2023/04/08 01:35:26;;;;;;;1.17;1.10;;;14.70;56.70;;;;;;5075118;28;20171;-68
2023/04/08 01:37:52;;;;;;;1.10;1.10;;;14.60;56.60;;;;;;5074698;28;20249;-67
2023/04/08 01:40:18;;;;;;;0.93;0.93;;;14.60;56.60;;;;;;5073784;28;20668;-66
2023/04/08 01:42:44;;;;;;;1.10;1.10;;;14.60;56.60;;;;;;5074002;28;20261;-67
2023/04/08 01:45:10;;;;;;;1.30;1.20;;;14.60;56.60;;;;;;5072816;28;20178;-66
2023/04/08 01:47:36;;;;;;;1.30;1.20;;;14.60;56.60;;;;;;5073940;28;20178;-67
2023/04/08 01:50:02;;;;;;;1.08;1.08;;;14.60;56.60;;;;;;5073927;28;20184;-67
2023/04/08 01:52:28;;;;;;;1.40;1.30;;;14.60;56.60;;;;;;5072874;28;20197;-66
2023/04/08 01:54:53;;;;;;;1.38;1.27;;;14.60;56.60;;;;;;5074946;28;20690;-67
2023/04/08 01:57:22;;;;;;;1.27;1.17;;;14.60;56.60;;;;;;5074593;28;20604;-66
2023/04/08 01:59:50;;;;;;;1.20;1.20;;;14.60;56.60;;;;;;5072638;28;20660;-67
2023/04/08 02:02:16;;;;;;;1.40;1.30;;;14.60;56.60;;;;;;5073400;28;20186;-66
2023/04/08 02:04:41;;;;;;;1.33;1.23;;;14.60;56.70;;;;;;5073575;28;20190;-67
2023/04/08 02:07:07;;;;;;;1.05;1.05;;;14.60;56.60;;;;;;5073850;28;20175;-67
2023/04/08 02:09:33;;;;;;;1.30;1.20;;;14.60;56.70;;;;;;5073456;28;20177;-65
2023/04/08 02:11:58;;;;;;;1.40;1.30;;;14.60;56.60;;;;;;5073942;28;20166;-66
2023/04/08 02:14:25;;;;;;;0.98;0.98;;;14.60;56.70;;;;;;5074161;28;20628;-65
2023/04/08 02:17:06;;;;;;;1.10;1.10;;;14.60;56.60;;;;;;5074646;28;20175;-66
2023/04/08 02:19:39;;;;;;;1.42;1.33;;;14.60;56.60;;;;;;5072606;28;20226;-66
2023/04/08 02:22:06;;;;;;;1.67;1.58;;;14.60;56.60;;;;;;5073137;28;20269;-65
2023/04/08 02:24:32;;;;;;;1.75;1.20;;;14.50;56.50;;;;;;5073083;28;20533;-66
2023/04/08 02:26:58;;;;;;;1.38;1.27;;;14.50;56.50;;;;;;5072386;28;20257;-67
2023/04/08 02:29:23;;;;;;;1.48;1.38;;;14.50;56.50;;;;;;5074198;28;20274;-67
2023/04/08 02:31:49;;;;;;;1.48;1.38;;;14.50;56.60;;;;;;5073099;28;20255;-68
2023/04/08 02:34:15;;;;;;;1.20;1.20;;;14.50;56.50;;;;;;5071913;28;20261;-67
2023/04/08 02:36:41;;;;;;;1.38;1.30;;;14.50;56.60;;;;;;5072721;28;20174;-67
2023/04/08 02:39:07;;;;;;;1.30;1.30;;;14.60;56.60;;;;;;5072331;28;20210;-66
2023/04/08 02:41:32;;;;;;;1.55;1.45;;;14.60;56.60;;;;;;5073295;28;20704;-66
2023/04/08 02:43:58;;;;;;;1.42;1.33;;;14.50;56.50;;;;;;5074109;28;20575;-67
2023/04/08 02:46:23;;;;;;;1.38;1.27;;;14.50;56.50;;;;;;5073833;28;20171;-67
2023/04/08 02:48:49;;;;;;;1.38;1.30;;;14.50;56.60;;;;;;5073107;28;20477;-67
2023/04/08 02:51:15;;;;;;;1.55;1.45;;;14.50;56.50;;;;;;5073700;28;20167;-67
2023/04/08 02:53:40;;;;;;;1.58;1.48;;;14.50;56.50;;;;;;5073795;28;20273;-67
2023/04/08 02:56:09;;;;;;;1.27;1.17;;;14.50;56.50;;;;;;5072632;28;20258;-66
2023/04/08 02:58:34;;;;;;;1.30;1.20;;;14.50;56.50;;;;;;5073714;28;20242;-68
2023/04/08 03:01:00;;;;;;;1.35;1.33;;;14.50;56.60;;;;;;5073592;28;20245;-67
2023/04/08 03:03:30;;;;;;;1.45;1.35;;;14.50;56.50;;;;;;5072628;28;20198;-67
2023/04/08 03:05:55;;;;;;;1.55;1.45;;;14.40;56.60;;;;;;5073592;28;20178;-67
2023/04/08 03:08:21;;;;;;;1.95;1.85;;;14.50;56.60;;;;;;5072310;28;20184;-65
2023/04/08 03:10:48;;;;;;;1.65;1.55;;;14.40;56.60;;;;;;5073511;28;20194;-66
2023/04/08 03:13:13;;;;;;;1.58;1.48;;;14.50;56.60;;;;;;5073152;28;20258;-66
2023/04/08 03:15:39;;;;;;;1.65;1.55;;;14.40;56.50;;;;;;5072695;28;20645;-66
2023/04/08 03:18:05;;;;;;;1.63;1.52;;;14.40;56.50;;;;;;5073029;28;20182;-66
2023/04/08 03:20:30;;;;;;;1.70;1.60;;;14.40;56.60;;;;;;5072889;28;20731;-65
2023/04/08 03:22:56;;;;;;;1.52;1.42;;;14.40;56.60;;;;;;5072385;28;20534;-66
2023/04/08 03:25:21;;;;;;;1.58;1.48;;;14.50;56.50;;;;;;5072803;28;20179;-65
2023/04/08 03:27:47;;;;;;;1.50;1.40;;;14.50;56.40;;;;;;5073208;28;20557;-67
2023/04/08 03:30:12;;;;;;;1.60;1.50;;;14.50;56.40;;;;;;5072280;28;20641;-67
2023/04/08 03:32:38;;;;;;;1.77;1.67;;;14.50;56.40;;;;;;5073113;28;20170;-68
2023/04/08 03:35:05;;;;;;;2.05;1.88;;;14.60;56.40;;;;;;5073020;28;20692;-68
2023/04/08 03:37:30;;;;;;;1.48;1.38;;;14.60;56.40;;;;;;5072186;28;20174;-66
2023/04/08 03:39:56;;;;;;;1.80;1.70;;;14.60;56.40;;;;;;5072861;28;20579;-66
2023/04/08 03:42:21;;;;;;;2.08;1.55;;;14.50;56.40;;;;;;5072884;28;20171;-68
2023/04/08 03:44:47;;;;;;;1.88;1.77;;;14.50;56.40;;;;;;5072357;28;20548;-67
2023/04/08 03:47:12;;;;;;;1.77;1.67;;;14.50;56.40;;;;;;5072547;28;20243;-67
2023/04/08 03:49:38;;;;;;;1.70;1.60;;;14.50;56.40;;;;;;5072358;28;20611;-66
2023/04/08 03:52:03;;;;;;;1.77;1.67;;;14.50;56.40;;;;;;5071878;28;20591;-67
2023/04/08 03:54:29;;;;;;;1.83;1.73;;;14.50;56.40;;;;;;5071434;28;20682;-66
2023/04/08 03:56:55;;;;;;;1.95;1.73;;;14.50;56.40;;;;;;5072854;28;20261;-68
2023/04/08 03:59:20;;;;;;;1.70;1.60;;;14.40;56.40;;;;;;5071755;28;20194;-67
2023/04/08 04:01:46;;;;;;;1.95;1.85;;;14.40;56.40;;;;;;5072872;28;20170;-68
2023/04/08 04:04:12;;;;;;;1.80;1.70;;;14.40;56.40;;;;;;5072423;28;20167;-68
2023/04/08 04:06:37;;;;;;;1.70;1.60;;;14.40;56.50;;;;;;5071882;28;20268;-68
2023/04/08 04:09:03;;;;;;;2.08;1.98;;;14.40;56.50;;;;;;5072390;28;20182;-67
2023/04/08 04:11:28;;;;;;;2.00;1.90;;;14.40;56.50;;;;;;5072199;28;20181;-66
2023/04/08 04:13:54;;;;;;;2.05;1.95;;;14.40;56.50;;;;;;5071668;28;20178;-67
2023/04/08 04:16:19;;;;;;;2.13;1.92;;;14.40;56.50;;;;;;5072206;28;20181;-65
2023/04/08 04:18:45;;;;;;;2.25;1.98;;;14.40;57.10;;;;;;5071662;28;20185;-67
2023/04/08 04:21:10;;;;;;;1.60;1.50;;;14.40;56.50;;;;;;5072336;28;20170;-66
2023/04/08 04:23:36;;;;;;;1.80;1.70;;;14.40;56.50;;;;;;5072488;28;20178;-66
2023/04/08 04:26:06;;;;;;;1.92;1.83;;;14.30;56.50;;;;;;5072144;28;20186;-68
2023/04/08 04:28:31;;;;;;;1.92;1.83;;;14.30;56.50;;;;;;5072653;28;20170;-69
2023/04/08 04:30:57;;;;;;;1.90;1.80;;;14.30;56.50;;;;;;5072320;28;20652;-70
2023/04/08 04:33:23;;;;;;;2.30;2.20;;;14.40;56.30;;;;;;5071236;28;20179;-68
2023/04/08 04:35:48;;;;;;;2.35;2.15;;;14.40;56.30;;;;;;5072249;28;20182;-68
2023/04/08 04:38:15;;;;;;;1.85;1.75;;;14.50;56.10;;;;;;5071827;28;20258;-67
2023/04/08 04:40:40;;;;;;;1.88;1.77;;;14.50;56.10;;;;;;5071660;28;20210;-67
2023/04/08 04:43:06;;;;;;;2.10;2.00;;;14.50;56.00;;;;;;5071993;28;20187;-68
2023/04/08 04:45:31;;;;;;;2.28;2.17;;;14.50;56.10;;;;;;5072306;28;20265;-68
2023/04/08 04:47:57;;;;;;;2.50;2.30;;;14.50;56.10;;;;;;5071563;28;20166;-69
2023/04/08 04:50:22;;;;;;;2.53;2.13;;;14.50;56.20;;;;;;5071827;28;20220;-67
2023/04/08 04:52:48;;;;;;;2.40;2.20;;;14.40;56.10;;;;;;5072003;28;20174;-67
2023/04/08 04:55:14;;;;;;;2.53;2.30;;;14.40;56.20;;;;;;5071213;28;20178;-67
2023/04/08 04:57:40;;;;;;;2.60;2.40;;;14.40;56.10;;;;;;5072087;28;20585;-67
2023/04/08 05:00:07;;;;;;;2.20;2.00;;;14.40;56.00;;;;;;5071550;28;20206;-68
2023/04/08 05:02:32;;;;;;;2.20;2.00;;;14.50;55.80;;;;;;5073856;28;20254;-68
2023/04/08 05:04:58;;;;;;;2.22;2.13;;;14.60;55.80;;;;;;5075962;28;20543;-68
2023/04/08 05:07:24;;;;;;;2.25;2.15;;;14.70;55.70;;;;;;5075708;28;20598;-68
2023/04/08 05:09:49;;;;;;;2.20;2.10;;;14.80;55.60;;;;;;5075195;28;20543;-67
2023/04/08 05:12:15;;;;;;;2.60;2.40;;;15.00;55.40;;;;;;5075625;28;20173;-67
2023/04/08 05:14:41;;;;;;;2.38;2.17;;;15.20;55.20;;;;;;5075799;28;20633;-67
2023/04/08 05:17:06;;;;;;;2.17;2.08;;;15.30;55.00;;;;;;5074529;28;20249;-67
2023/04/08 05:19:32;;;;;;;2.42;2.22;;;15.50;54.70;;;;;;5075315;28;20226;-66
2023/04/08 05:21:57;;;;;;;1.83;1.73;;;15.70;54.40;;;;;;5074764;28;20175;-67
2023/04/08 05:24:23;;;;;;;3.45;2.20;;;16.00;54.10;;;;;;5075407;28;20174;-67
2023/04/08 05:26:51;;;;;;;2.75;2.00;;;16.30;53.60;;;;;;5075482;28;20545;-68
2023/04/08 05:29:17;;;;;;;1.63;1.52;;;16.40;53.30;;;;;;5074653;28;20185;-69
2023/04/08 05:31:43;;;;;;;2.25;2.10;;;16.60;53.10;;;;;;5075437;28;20178;-70
2023/04/08 05:34:10;;;;;;;2.05;1.95;;;16.50;52.90;;;;;;5075050;28;20195;-69
2023/04/08 05:36:35;;;;;;;2.35;2.15;;;16.60;52.90;;;;;;5074718;28;20659;-68
2023/04/08 05:39:01;;;;;;;2.05;1.90;;;16.60;52.90;;;;;;5075337;28;20201;-68
2023/04/08 05:41:26;;;;;;;2.10;2.00;;;16.60;53.00;;;;;;5075088;28;20197;-67
2023/04/08 05:43:52;;;;;;;2.38;1.88;;;16.60;53.00;;;;;;5074638;28;20640;-68
2023/04/08 05:46:17;;;;;;;1.70;1.60;;;16.60;53.00;;;;;;5074790;28;20621;-68
2023/04/08 05:48:43;;;;;;;1.80;1.70;;;16.60;53.10;;;;;;5075221;28;20205;-69
2023/04/08 05:51:14;;;;;;;1.75;1.65;;;16.60;53.00;;;;;;5074065;28;20175;-68
2023/04/08 05:53:40;;;;;;;1.92;1.83;;;16.70;53.10;;;;;;5075206;28;20178;-68
2023/04/08 05:56:06;;;;;;;1.60;1.50;;;16.70;53.10;;;;;;5074718;28;20190;-67
2023/04/08 05:58:31;;;;;;;2.00;1.90;;;16.70;53.20;;;;;;5074051;28;20220;-69
2023/04/08 06:00:57;;;;;;;2.05;1.90;;;16.80;52.90;;;;;;5074718;28;20237;-69
2023/04/08 06:03:22;;;;;;;1.90;1.80;;;17.10;52.70;;;;;;5074355;28;20167;-69
2023/04/08 06:05:48;;;;;;;1.85;1.75;;;17.30;52.40;;;;;;5074442;28;20174;-68
2023/04/08 06:08:13;;;;;;;1.77;1.67;;;17.40;52.10;;;;;;5074682;28;20193;-67
2023/04/08 06:10:39;;;;;;;1.50;1.40;;;17.50;52.10;;;;;;5074947;28;20188;-68
2023/04/08 06:13:04;;;;;;;1.77;1.67;;;17.50;51.90;;;;;;5073637;28;20204;-68
2023/04/08 06:15:31;;;;;;;1.60;1.50;;;17.70;51.70;;;;;;5074778;28;20515;-67
2023/04/08 06:17:56;;;;;;;1.70;1.60;;;17.80;51.50;;;;;;5074560;28;20182;-67
2023/04/08 06:20:22;;;;;;;1.55;1.42;;;17.70;51.50;;;;;;5073705;28;20715;-67
2023/04/08 06:22:48;;;;;;;1.60;1.50;;;17.70;51.50;;;;;;5074814;28;20185;-67
2023/04/08 06:25:13;;;;;;;1.60;1.50;;;17.80;51.50;;;;;;5073969;28;20273;-67
2023/04/08 06:27:39;;;;;;;1.67;1.63;;;17.70;51.60;;;;;;5074792;28;20167;-68
2023/04/08 06:30:05;;;;;;;2.03;1.90;;;17.70;51.60;;;;;;5074655;28;20171;-70
2023/04/08 06:32:31;;;;;;;1.90;1.80;;;17.70;51.70;;;;;;5073990;28;21104;-69
2023/04/08 06:34:56;;;;;;;2.33;2.05;;;17.60;51.70;;;;;;5074617;28;20291;-68
2023/04/08 06:37:22;;;;;;;2.08;1.95;;;17.70;51.80;;;;;;5074202;28;20258;-68
2023/04/08 06:39:47;;;;;;;2.08;1.98;;;17.60;51.90;;;;;;5073685;28;20411;-68
2023/04/08 06:42:13;;;;;;;1.60;1.50;;;17.60;51.90;;;;;;5074427;28;20265;-67
2023/04/08 06:44:38;;;;;;;3.42;1.80;;;17.60;52.00;;;;;;5074599;28;20249;-68
2023/04/08 06:47:04;;;;;;;1.70;1.60;;;17.50;52.20;;;;;;5073529;28;20656;-69
2023/04/08 06:49:30;;;;;;;1.60;1.50;;;17.40;52.30;;;;;;5074432;28;20181;-67
2023/04/08 06:51:55;;;;;;;1.85;1.75;;;17.30;52.50;;;;;;5074271;28;20637;-69
2023/04/08 06:54:21;;;;;;;1.70;1.60;;;17.30;52.70;;;;;;5073435;28;20183;-67
2023/04/08 06:56:46;;;;;;;1.63;1.52;;;17.20;52.80;;;;;;5074204;28;20174;-68
2023/04/08 06:59:12;;;;;;;1.70;1.60;;;17.20;53.00;;;;;;5073831;28;20191;-70
2023/04/08 07:01:37;;;;;;;1.80;1.70;;;17.20;52.90;;;;;;5073085;28;20241;-69
2023/04/08 07:04:03;;;;;;;1.80;1.70;;;17.30;52.80;;;;;;5073972;28;20574;-70
2023/04/08 07:06:31;;;;;;;1.67;1.42;;;17.30;52.70;;;;;;5073626;28;20652;-68
2023/04/08 07:08:57;;;;;;;1.90;1.80;;;17.70;53.00;;;;;;5073279;28;20675;-69
2023/04/08 07:11:22;;;;;;;3.38;1.70;;;17.40;52.90;;;;;;5073597;28;20171;-68
2023/04/08 07:13:48;;;;;;;2.42;1.92;;;17.50;52.90;;;;;;5073821;28;20170;-68
2023/04/08 07:16:14;;;;;;;1.67;1.58;;;17.50;52.80;;;;;;5072780;28;20186;-67
2023/04/08 07:18:41;;;;;;;1.70;1.60;;;17.60;52.90;;;;;;5073458;28;20541;-70
2023/04/08 07:21:07;;;;;;;2.00;1.80;;;17.60;53.10;;;;;;5073567;28;20222;-68
2023/04/08 07:23:32;;;;;;;1.92;1.83;;;17.50;53.00;;;;;;5072552;28;20697;-66
2023/04/08 07:26:03;;;;;;;1.67;1.58;;;17.50;53.30;;;;;;5073172;28;20239;-65
2023/04/08 07:28:28;;;;;;;1.88;1.65;;;17.50;53.30;;;;;;5072733;28;20170;-64
2023/04/08 07:30:54;;;;;;;2.78;1.92;;;17.50;53.40;;;;;;5073390;28;20269;-65
2023/04/08 07:33:19;;;;;;;2.40;1.73;;;17.60;53.60;;;;;;5073067;28;20318;-67
2023/04/08 07:35:45;;;;;;;1.77;1.60;;;17.60;53.60;;;;;;5072732;28;20315;-65
2023/04/08 07:38:12;;;;;;;3.58;1.98;;;17.60;53.40;;;;;;5073233;28;20228;-65
2023/04/08 07:40:37;;;;;;;1.85;1.70;;;17.70;53.50;;;;;;5073244;28;20225;-65
2023/04/08 07:43:03;;;;;;;2.85;2.13;;;17.80;53.40;;;;;;5072527;28;20543;-65
2023/04/08 07:45:28;;;;;;;1.85;1.75;;;17.70;53.40;;;;;;5072944;28;20546;-65
2023/04/08 07:47:54;;;;;;;5.78;2.05;;;17.80;53.30;;;;;;5073130;28;20570;-66
2023/04/08 07:50:20;;;;;;;1.88;1.77;;;17.70;53.30;;;;;;5072663;28;20170;-64
2023/04/08 07:52:45;;;;;;;1.98;1.55;;;17.60;53.50;;;;;;5073334;28;20256;-64
2023/04/08 07:55:11;;;;;;;2.38;1.70;;;17.60;53.60;;;;;;5072645;28;20174;-64
2023/04/08 07:57:36;;;;;;;1.70;1.60;;;17.50;53.80;;;;;;5071788;28;20179;-65
2023/04/08 08:00:03;;;;;;;2.30;2.10;;;17.40;54.00;;;;;;5072646;28;20217;-65
2023/04/08 08:02:29;;;;;;;2.22;1.85;;;17.40;54.80;;;;;;5072238;28;20657;-64
2023/04/08 08:04:54;;;;;;;2.75;1.75;;;17.30;54.30;;;;;;5072064;28;20174;-64
2023/04/08 08:07:20;;;;;;;2.20;2.00;;;17.30;54.50;;;;;;5072415;28;20261;-64
2023/04/08 08:09:49;;;;;;;2.65;1.80;;;17.30;54.50;;;;;;5072511;28;20257;-66
2023/04/08 08:12:14;;;;;;;2.67;1.83;;;17.30;54.50;;;;;;5071392;28;20664;-66
2023/04/08 08:14:40;;;;;;;1.83;1.70;;;17.30;54.30;;;;;;5072299;28;20178;-65
2023/04/08 08:17:06;;;;;;;1.90;1.67;;;17.30;54.30;;;;;;5071831;28;20197;-67
2023/04/08 08:19:31;;;;;;;3.53;2.10;;;17.30;54.10;;;;;;5070974;28;20232;-65
2023/04/08 08:21:57;;;;;;;2.67;1.98;;;17.30;54.10;;;;;;5080239;28;20182;-65
2023/04/08 08:24:22;;;;;;;2.50;2.15;;;17.30;54.10;;;;;;5081599;28;20177;-63
2023/04/08 08:26:48;;;;;;;2.05;1.80;;;17.30;54.00;;;;;;5078839;28;20512;-68
2023/04/08 08:29:13;;;;;;;2.63;2.40;;;17.30;54.10;;;;;;5071864;28;20649;-66
2023/04/08 08:31:39;;;;;;;2.90;1.90;;;17.30;54.20;;;;;;5072311;28;20174;-64
2023/04/08 08:34:04;;;;;;;2.00;1.80;;;17.30;54.30;;;;;;5071431;28;20248;-64
2023/04/08 08:36:32;;;;;;;2.97;2.35;;;17.20;54.10;;;;;;5074948;28;20269;-66
2023/04/08 08:38:58;;;;;;;2.20;2.00;;;17.20;54.30;;;;;;5075522;28;20202;-68
2023/04/08 08:41:23;;;;;;;3.60;1.83;;;17.20;54.30;;;;;;5076015;28;20267;-68
2023/04/08 08:43:49;;;;;;;2.78;2.00;;;17.20;54.40;;;;;;5075999;28;20206;-68
2023/04/08 08:46:16;;;;;;;2.22;2.03;;;17.10;54.40;;;;;;5074122;28;20171;-68
2023/04/08 08:48:42;;;;;;;2.13;2.03;;;17.10;54.60;;;;;;5076023;28;20181;-69
2023/04/08 08:51:09;;;;;;;2.17;1.98;;;17.10;54.60;;;;;;5075659;28;20695;-68
2023/04/08 08:53:35;;;;;;;2.60;2.40;;;17.10;54.60;;;;;;5075066;28;20191;-69
2023/04/08 08:56:00;;;;;;;2.25;2.00;;;17.10;54.70;;;;;;5075895;28;20182;-68
2023/04/08 08:58:26;;;;;;;2.03;1.92;;;17.10;54.70;;;;;;5075811;28;20621;-68
2023/04/08 09:00:52;;;;;;;2.67;2.03;;;17.00;54.70;;;;;;5075211;28;20291;-69
2023/04/08 09:03:22;;;;;;;2.72;2.00;;;17.10;54.70;;;;;;5075511;28;20661;-69
2023/04/08 09:05:58;;;;;;;3.08;2.28;;;17.00;54.70;;;;;;5075895;28;20182;-68
2023/04/08 09:08:34;;;;;;;2.30;2.03;;;17.00;54.70;;;;;;5074796;28;20174;-67
2023/04/08 09:11:26;;;;;;;3.30;2.10;;;17.10;54.70;;;;;;5075541;28;20221;-67
2023/04/08 09:13:51;;;;;;;1.75;1.65;;;17.10;54.80;;;;;;5074408;28;20187;-67
2023/04/08 09:16:22;;;;;;;2.00;1.80;;;17.10;54.80;;;;;;5074669;28;20216;-67
2023/04/08 09:18:48;;;;;;;2.03;1.90;;;17.10;54.80;;;;;;5075421;28;20202;-67
2023/04/08 09:21:15;;;;;;;2.00;1.90;;;17.10;54.70;;;;;;5074501;28;20691;-67
2023/04/08 09:23:48;;;;;;;2.08;1.98;;;17.10;54.70;;;;;;5075429;28;20166;-67
2023/04/08 09:26:21;;;;;;;2.05;1.85;;;17.10;54.80;;;;;;5075421;28;20198;-67
2023/04/08 09:29:05;;;;;;;2.15;2.05;;;17.10;54.70;;;;;;5074850;28;20170;-70
2023/04/08 09:31:40;;;;;;;2.47;2.10;;;17.10;54.70;;;;;;5075292;28;20170;-68
2023/04/08 09:34:13;;;;;;;2.08;1.73;;;17.10;54.70;;;;;;5074978;28;20208;-68
2023/04/08 09:36:38;;;;;;;1.85;1.75;;;17.10;54.80;;;;;;5074647;28;20174;-67
2023/04/08 09:39:04;;;;;;;2.38;1.98;;;17.10;54.80;;;;;;5075158;28;20273;-67
2023/04/08 09:41:35;;;;;;;2.00;1.90;;;17.10;54.80;;;;;;5074910;28;20198;-67
2023/04/08 09:44:03;;;;;;;2.33;1.80;;;17.20;54.90;;;;;;5073279;28;20186;-68
2023/04/08 09:46:33;;;;;;;2.10;1.90;;;17.20;54.90;;;;;;5074685;28;20178;-68
2023/04/08 09:49:01;;;;;;;2.65;2.08;;;17.20;54.90;;;;;;5074366;28;20177;-68
2023/04/08 09:51:32;;;;;;;1.80;1.70;;;17.20;54.90;;;;;;5073767;28;20174;-68
2023/04/08 09:54:02;;;;;;;2.30;2.10;;;17.10;54.90;;;;;;5073850;28;20205;-68
2023/04/08 09:56:38;;;;;;;2.95;2.50;;;17.20;55.00;;;;;;5073870;28;20743;-67
2023/04/08 09:59:09;;;;;;;2.63;1.80;;;17.20;55.00;;;;;;5074677;28;20178;-70
2023/04/08 10:01:39;;;;;;;1.70;1.60;;;17.20;55.00;;;;;;5074867;28;20191;-68
2023/04/08 10:04:07;;;;;;;2.40;2.20;;;17.20;54.90;;;;;;5072764;28;20174;-69
2023/04/08 10:06:33;;;;;;;2.42;2.08;;;17.20;55.00;;;;;;5073224;28;20763;-69
2023/04/08 10:08:59;;;;;;;2.03;1.92;;;17.20;54.90;;;;;;5073460;28;20213;-68
2023/04/08 10:11:24;;;;;;;2.25;2.05;;;17.20;55.00;;;;;;5072092;28;20182;-67
2023/04/08 10:13:50;;;;;;;2.70;2.30;;;17.10;55.00;;;;;;5074669;28;20636;-68
2023/04/08 10:16:16;;;;;;;2.25;2.05;;;17.10;55.00;;;;;;5073131;28;20170;-67
2023/04/08 10:18:43;;;;;;;2.13;1.92;;;17.10;55.00;;;;;;5073362;28;20174;-68
2023/04/08 10:21:33;;;;;;;2.30;2.10;;;17.10;55.00;;;;;;5074005;28;20218;-67
2023/04/08 10:24:00;;;;;;;2.15;1.98;;;17.10;55.00;;;;;;5074207;28;20181;-68
2023/04/08 10:26:36;;;;;;;2.33;2.10;;;17.10;55.00;;;;;;5073446;28;20219;-67
2023/04/08 10:29:17;;;;;;;2.30;2.10;;;17.00;55.00;;;;;;5074194;28;20710;-71
2023/04/08 10:31:45;;;;;;;2.15;2.05;;;17.10;55.00;;;;;;5073570;28;20242;-70
2023/04/08 10:34:24;;;;;;;2.00;1.80;;;17.10;55.10;;;;;;5073823;28;20170;-69
2023/04/08 10:36:49;;;;;;;2.30;2.15;;;17.10;55.00;;;;;;5074207;28;20182;-69
2023/04/08 10:39:15;;;;;;;2.08;1.85;;;17.10;55.10;;;;;;5072984;28;20675;-69
2023/04/08 10:41:42;;;;;;;2.38;2.17;;;17.00;55.00;;;;;;5074286;28;20192;-69
2023/04/08 10:44:20;;;;;;;3.08;2.03;;;17.00;55.00;;;;;;5073580;28;20181;-70
2023/04/08 10:46:46;;;;;;;2.20;2.00;;;17.00;55.00;;;;;;5073153;28;20201;-69
2023/04/08 10:49:13;;;;;;;2.15;1.95;;;17.00;55.00;;;;;;5073564;28;20278;-69
2023/04/08 10:51:39;;;;;;;2.05;1.95;;;17.00;55.00;;;;;;5073654;28;20238;-70
2023/04/08 10:54:06;;;;;;;2.00;1.90;;;17.00;55.00;;;;;;5072950;28;20257;-68
2023/04/08 10:56:32;;;;;;;2.33;2.10;;;17.00;55.00;;;;;;5073766;28;20178;-68
2023/04/08 10:58:58;;;;;;;2.30;2.10;;;17.00;55.00;;;;;;5071256;28;20599;-69
2023/04/08 11:01:28;;;;;;;2.15;2.00;;;17.00;55.00;;;;;;5072388;28;20532;-70
2023/04/08 11:03:54;;;;;;;2.13;1.90;;;17.00;55.00;;;;;;5072161;28;20240;-70
2023/04/08 11:06:20;;;;;;;2.20;1.75;;;17.10;55.00;;;;;;5073023;27;20174;-68
2023/04/08 11:08:46;;;;;;;2.22;2.08;;;17.20;54.90;;;;;;5072681;28;20171;-68
2023/04/08 11:11:11;;;;;;;2.40;2.20;;;17.20;54.80;;;;;;5073014;28;20174;-68
2023/04/08 11:13:40;;;;;;;2.00;1.90;;;17.20;54.60;;;;;;5072498;28;20269;-68
2023/04/08 11:16:09;;;;;;;1.50;1.40;;;17.30;54.60;;;;;;5072797;28;20231;-68
2023/04/08 11:18:36;;;;;;;2.28;2.15;;;17.20;54.70;;;;;;5073255;28;20326;-67
2023/04/08 11:21:02;;;;;;;1.75;1.65;;;17.10;54.70;;;;;;5070948;28;20287;-68
2023/04/08 11:23:30;;;;;;;2.35;2.00;;;17.10;54.70;;;;;;5072673;28;20712;-68
2023/04/08 11:25:56;;;;;;;2.30;2.10;;;17.10;54.70;;;;;;5071931;28;20190;-68
2023/04/08 11:28:21;;;;;;;2.20;2.00;;;17.10;54.70;;;;;;5070727;28;20755;-68
2023/04/08 11:30:47;;;;;;;2.38;2.03;;;17.10;54.80;;;;;;5071629;28;20196;-71
2023/04/08 11:33:13;;;;;;;2.33;2.13;;;17.10;54.90;;;;;;5071404;28;20204;-71
2023/04/08 11:35:42;;;;;;;2.30;2.10;;;17.10;54.90;;;;;;5072183;28;20261;-68
2023/04/08 11:38:08;;;;;;;2.03;1.85;;;17.00;54.90;;;;;;5072480;28;20649;-68
2023/04/08 11:40:33;;;;;;;1.95;1.85;;;17.00;54.90;;;;;;5072557;28;20233;-67
2023/04/08 11:42:59;;;;;;;2.40;2.20;;;17.00;55.00;;;;;;5070470;28;20645;-71
2023/04/08 11:45:24;;;;;;;2.40;2.20;;;17.00;55.00;;;;;;5071003;28;20576;-69
2023/04/08 11:47:50;;;;;;;2.10;1.85;;;16.90;55.00;;;;;;5071518;28;20689;-69
2023/04/08 11:50:25;;;;;;;1.95;1.85;;;16.90;55.00;;;;;;5071837;28;20640;-68
2023/04/08 11:52:51;;;;;;;1.88;1.77;;;16.90;55.00;;;;;;5072527;28;20193;-69
2023/04/08 11:55:27;;;;;;;1.98;1.83;;;16.90;55.00;;;;;;5072327;28;20174;-69
2023/04/08 11:57:53;;;;;;;1.83;1.73;;;16.90;55.00;;;;;;5071963;28;20178;-70
2023/04/08 12:00:19;;;;;;;1.95;1.77;;;16.90;55.00;;;;;;5072288;28;20210;-69
2023/04/08 12:02:48;;;;;;;2.13;2.03;;;16.90;54.90;;;;;;5071960;28;20579;-71
2023/04/08 12:05:14;;;;;;;2.00;1.80;;;17.00;54.90;;;;;;5072179;28;20213;-68
2023/04/08 12:07:42;;;;;;;1.88;1.60;;;16.90;54.80;;;;;;5072363;28;20166;-68
2023/04/08 12:10:09;;;;;;;2.00;1.90;;;17.00;54.80;;;;;;5070856;28;20198;-68
2023/04/08 12:12:35;;;;;;;2.20;1.98;;;17.00;54.70;;;;;;5072416;28;20254;-68
2023/04/08 12:15:00;;;;;;;2.35;2.03;;;17.10;54.50;;;;;;5072388;28;20174;-68
2023/04/08 12:17:26;;;;;;;1.77;1.67;;;17.10;54.50;;;;;;5071399;28;20209;-68
2023/04/08 12:19:52;;;;;;;1.90;1.67;;;17.10;54.60;;;;;;5071980;28;20317;-67
2023/04/08 12:22:18;;;;;;;1.88;1.77;;;17.10;55.10;;;;;;5071801;28;20296;-67
2023/04/08 12:24:44;;;;;;;2.33;2.00;;;17.10;54.60;;;;;;5071308;28;20269;-67
2023/04/08 12:27:10;;;;;;;1.75;1.65;;;17.10;54.60;;;;;;5072025;28;20198;-69
2023/04/08 12:29:35;;;;;;;2.15;1.95;;;17.10;54.60;;;;;;5072105;28;20166;-71
2023/04/08 12:32:01;;;;;;;2.10;2.00;;;17.10;54.60;;;;;;5071444;28;20178;-70
2023/04/08 12:34:26;;;;;;;2.17;1.95;;;17.10;54.60;;;;;;5071784;28;20181;-68
2023/04/08 12:36:52;;;;;;;1.80;1.70;;;17.10;54.60;;;;;;5072020;28;20570;-67
2023/04/08 12:39:17;;;;;;;2.00;1.90;;;17.10;54.60;;;;;;5070724;28;20179;-67
2023/04/08 12:41:43;;;;;;;2.10;2.00;;;17.00;54.60;;;;;;5071995;28;20204;-67
2023/04/08 12:44:09;;;;;;;1.67;1.58;;;17.00;54.50;;;;;;5071376;28;20630;-68
2023/04/08 12:46:37;;;;;;;1.92;1.77;;;17.00;54.50;;;;;;5071170;28;20179;-68